createdAt,value
2019-05-09T00:02:17.386Z,100227.81
2019-05-09T00:04:48.884Z,100231.09
2019-05-09T00:07:20.253Z,100242.09
2019-05-09T00:09:53.383Z,100241.17
2019-05-09T00:12:24.838Z,100243.78
2019-05-09T00:14:56.140Z,100239.34
2019-05-09T00:17:27.565Z,100244.47
2019-05-09T00:20:00.529Z,100244.52
2019-05-09T00:22:33.290Z,100249.04
2019-05-09T00:25:06.745Z,100257.44
2019-05-09T00:27:38.175Z,100259.67
2019-05-09T00:30:09.621Z,100271.55
2019-05-09T00:32:43.218Z,100259.28
2019-05-09T00:35:18.942Z,100263.56
2019-05-09T00:38:06.336Z,100258.58
2019-05-09T00:40:51.616Z,100258.38
2019-05-09T00:43:13.168Z,100255.30
2019-05-09T00:45:46.331Z,100246.84
2019-05-09T00:48:19.185Z,100246.44
2019-05-09T00:50:50.522Z,100246.36
2019-05-09T00:53:23.267Z,100253.93
2019-05-09T00:55:54.817Z,100247.83
2019-05-09T00:58:26.216Z,100245.29
2019-05-09T01:00:57.570Z,100240.58
2019-05-09T01:03:28.921Z,100238.20
2019-05-09T01:06:00.289Z,100233.44
2019-05-09T01:08:33.513Z,100231.98
2019-05-09T01:11:12.008Z,100224.31
2019-05-09T01:13:37.873Z,100219.63
2019-05-09T01:16:09.246Z,100211.62
2019-05-09T01:18:40.614Z,100209.42
2019-05-09T01:21:13.386Z,100206.55
2019-05-09T01:23:44.930Z,100201.80
2019-05-09T01:26:16.306Z,100205.70
2019-05-09T01:28:47.671Z,100205.02
2019-05-09T01:31:18.437Z,100203.75
2019-05-09T01:34:00.453Z,100206.36
2019-05-09T01:36:49.765Z,100200.58
2019-05-09T01:39:21.127Z,100200.02
2019-05-09T01:41:53.184Z,100190.00
2019-05-09T01:44:25.640Z,100186.48
2019-05-09T01:46:57.010Z,100192.14
2019-05-09T01:49:28.382Z,100184.83
2019-05-09T01:51:59.718Z,100188.94
2019-05-09T01:54:33.112Z,100186.80
2019-05-09T01:57:04.137Z,100187.41
2019-05-09T01:59:35.447Z,100187.73
2019-05-09T02:02:08.742Z,100184.19
2019-05-09T02:04:43.861Z,100178.61
2019-05-09T02:07:14.995Z,100183.58
2019-05-09T02:09:46.327Z,100182.81
2019-05-09T02:12:17.682Z,100179.78
2019-05-09T02:15:05.728Z,100176.59
2019-05-09T02:17:38.744Z,100176.91
2019-05-09T02:20:10.200Z,100179.22
2019-05-09T02:22:43.513Z,100175.63
2019-05-09T02:25:14.624Z,100183.41
2019-05-09T02:27:46.020Z,100186.45
2019-05-09T02:30:17.472Z,100180.55
2019-05-09T02:32:48.375Z,100173.69
2019-05-09T02:35:20.564Z,100170.72
2019-05-09T02:37:51.967Z,100165.56
2019-05-09T02:40:23.261Z,100155.03
2019-05-09T02:42:54.634Z,100162.12
2019-05-09T02:45:28.448Z,100161.16
2019-05-09T02:47:59.910Z,100160.69
2019-05-09T02:50:31.252Z,100156.72
2019-05-09T02:53:03.587Z,100152.25
2019-05-09T02:55:34.979Z,100149.50
2019-05-09T02:58:08.326Z,100151.68
2019-05-09T03:00:41.509Z,100158.19
2019-05-09T03:03:29.365Z,100162.70
2019-05-09T03:06:00.715Z,100165.40
2019-05-09T03:08:32.039Z,100162.37
2019-05-09T03:11:03.425Z,100161.61
2019-05-09T03:13:34.846Z,100155.59
2019-05-09T03:16:08.673Z,100159.64
2019-05-09T03:18:41.295Z,100156.45
2019-05-09T03:21:19.940Z,100151.20
2019-05-09T03:23:51.328Z,100149.14
2019-05-09T03:26:24.246Z,100139.37
2019-05-09T03:29:09.177Z,100139.00
2019-05-09T03:31:42.042Z,100143.65
2019-05-09T03:34:13.417Z,100140.45
2019-05-09T03:36:44.752Z,100134.64
2019-05-09T03:39:18.349Z,100129.31
2019-05-09T03:41:50.419Z,100127.34
2019-05-09T03:44:21.907Z,100122.13
2019-05-09T03:46:54.857Z,100127.34
2019-05-09T03:49:28.269Z,100121.05
2019-05-09T03:51:59.251Z,100116.48
2019-05-09T03:54:30.588Z,100119.59
2019-05-09T03:57:03.512Z,100121.81
2019-05-09T03:59:34.896Z,100124.56
2019-05-09T04:02:09.951Z,100123.62
2019-05-09T04:04:39.404Z,100121.66
2019-05-09T04:07:10.798Z,100124.03
2019-05-09T04:09:42.128Z,100122.66
2019-05-09T04:12:13.640Z,100127.17
2019-05-09T04:14:48.027Z,100131.66
2019-05-09T04:17:20.468Z,100126.86
2019-05-09T04:19:51.195Z,100128.59
2019-05-09T04:22:22.274Z,100131.26
2019-05-09T04:24:53.672Z,100114.55
2019-05-09T04:27:29.889Z,100114.55
2019-05-09T04:30:01.598Z,100123.42
2019-05-09T04:32:34.190Z,100124.64
2019-05-09T04:35:05.016Z,100123.47
2019-05-09T04:37:38.000Z,100127.42
2019-05-09T04:40:09.515Z,100122.82
2019-05-09T04:42:44.461Z,100121.81
2019-05-09T04:45:24.987Z,100125.09
2019-05-09T04:47:57.781Z,100125.33
2019-05-09T04:50:29.281Z,100131.22
2019-05-09T04:53:00.780Z,100130.05
2019-05-09T04:55:33.409Z,100127.22
2019-05-09T04:58:04.465Z,100123.02
2019-05-09T05:00:53.370Z,100131.05
2019-05-09T05:03:28.249Z,100130.28
2019-05-09T05:05:58.594Z,100130.33
2019-05-09T05:08:30.114Z,100131.58
2019-05-09T05:11:01.560Z,100137.06
2019-05-09T05:13:35.071Z,100129.60
2019-05-09T05:22:50.274Z,100135.33
2019-05-09T05:25:22.845Z,100134.92
2019-05-09T05:28:10.186Z,100131.17
2019-05-09T05:30:47.748Z,100131.09
2019-05-09T05:33:24.948Z,100126.13
2019-05-09T05:35:57.967Z,100129.27
2019-05-09T05:38:32.299Z,100130.17
2019-05-09T05:41:08.252Z,100130.09
2019-05-09T05:43:44.924Z,100130.61
2019-05-09T05:46:38.262Z,100135.37
2019-05-09T05:49:11.353Z,100134.37
2019-05-09T05:51:51.734Z,100131.17
2019-05-09T05:54:22.827Z,100138.07
2019-05-09T05:56:54.159Z,100140.61
2019-05-09T05:59:28.624Z,100141.98
2019-05-09T06:02:00.578Z,100145.25
2019-05-09T06:04:34.645Z,100146.19
2019-05-09T06:07:07.988Z,100142.75
2019-05-09T06:09:38.911Z,100142.75
2019-05-09T06:12:09.808Z,100144.48
2019-05-09T06:14:41.339Z,100140.53
2019-05-09T06:17:13.409Z,100138.41
2019-05-09T06:19:44.811Z,100129.76
2019-05-09T06:22:18.131Z,100114.74
2019-05-09T06:25:09.757Z,100105.83
2019-05-09T06:34:43.647Z,100108.58
2019-05-09T06:37:14.937Z,100107.21
2019-05-09T06:39:48.465Z,100109.34
2019-05-09T06:42:19.320Z,100117.83
2019-05-09T06:45:00.811Z,100122.72
2019-05-09T06:47:38.177Z,100131.47
2019-05-09T06:50:14.167Z,100132.76
2019-05-09T06:52:45.446Z,100141.33
2019-05-09T06:55:17.341Z,100133.77
2019-05-09T06:57:49.881Z,100136.84
2019-05-09T07:00:31.994Z,100135.06
2019-05-09T07:03:18.482Z,100143.14
2019-05-09T07:05:54.140Z,100137.73
2019-05-09T07:08:27.416Z,100145.00
2019-05-09T07:11:01.594Z,100149.63
2019-05-09T07:13:32.948Z,100141.77
2019-05-09T07:16:04.292Z,100142.23
2019-05-09T07:18:38.304Z,100137.23
2019-05-09T07:21:09.828Z,100133.03
2019-05-09T07:23:41.283Z,100138.48
2019-05-09T07:26:23.074Z,100137.91
2019-05-09T07:28:54.271Z,100138.08
2019-05-09T07:31:33.444Z,100139.92
2019-05-09T07:34:08.415Z,100143.36
2019-05-09T07:36:39.261Z,100143.91
2019-05-09T07:39:10.563Z,100152.87
2019-05-09T07:41:41.937Z,100147.56
2019-05-09T07:44:13.191Z,100146.19
2019-05-09T07:46:47.474Z,100147.29
2019-05-09T07:49:19.154Z,100141.58
2019-05-09T07:51:50.448Z,100145.31
2019-05-09T07:54:25.465Z,100147.12
2019-05-09T07:56:54.700Z,100142.11
2019-05-09T07:59:27.463Z,100141.11
2019-05-09T08:01:58.974Z,100136.80
2019-05-09T08:04:30.217Z,100137.88
2019-05-09T08:07:01.713Z,100139.34
2019-05-09T08:09:32.914Z,100144.99
2019-05-09T08:12:04.205Z,100146.48
2019-05-09T08:14:37.758Z,100150.48
2019-05-09T08:17:09.320Z,100151.11
2019-05-09T08:19:40.548Z,100143.19
2019-05-09T08:22:11.861Z,100147.85
2019-05-09T08:24:43.271Z,100141.30
2019-05-09T08:27:14.529Z,100133.59
2019-05-09T08:29:47.844Z,100140.27
2019-05-09T08:32:18.955Z,100142.95
2019-05-09T08:34:50.357Z,100141.84
2019-05-09T08:37:21.628Z,100137.00
2019-05-09T08:39:53.351Z,100136.01
2019-05-09T08:43:10.301Z,100139.00
2019-05-09T08:54:45.730Z,100153.98
2019-05-09T08:57:18.266Z,100152.81
2019-05-09T08:59:50.718Z,100159.64
2019-05-09T09:02:22.721Z,100164.04
2019-05-09T09:04:54.199Z,100161.45
2019-05-09T09:07:25.512Z,100167.98
2019-05-09T09:09:57.739Z,100166.88
2019-05-09T09:12:34.158Z,100166.67
2019-05-09T09:15:02.273Z,100155.81
2019-05-09T09:17:33.503Z,100154.33
2019-05-09T09:20:07.803Z,100152.90
2019-05-09T09:22:39.210Z,100152.87
2019-05-09T09:25:10.612Z,100161.12
2019-05-09T09:27:41.497Z,100156.16
2019-05-09T09:30:20.452Z,100147.50
2019-05-09T09:32:47.959Z,100158.27
2019-05-09T09:35:19.418Z,100158.91
2019-05-09T09:37:52.248Z,100164.39
2019-05-09T09:40:23.810Z,100167.91
2019-05-09T09:42:58.257Z,100170.31
2019-05-09T09:46:07.326Z,100166.84
2019-05-09T10:04:48.145Z,100165.47
2019-05-09T10:22:00.364Z,100170.83
2019-05-09T10:24:53.715Z,100182.39
2019-05-09T10:27:54.659Z,100193.20
2019-05-09T10:34:24.596Z,100190.52
2019-05-09T10:39:58.415Z,100195.31
2019-05-09T10:42:37.929Z,100203.62
2019-05-09T10:45:32.308Z,100191.28
2019-05-09T10:49:52.962Z,100186.36
2019-05-09T10:51:04.595Z,100183.30
2019-05-09T10:53:37.732Z,100191.28
2019-05-09T10:56:12.388Z,100194.39
2019-05-09T10:58:43.357Z,100202.18
2019-05-09T11:01:18.458Z,100205.77
2019-05-09T11:03:58.967Z,100212.30
2019-05-09T11:06:33.815Z,100208.19
2019-05-09T11:09:08.704Z,100213.05
2019-05-09T11:11:40.441Z,100215.58
2019-05-09T11:14:28.692Z,100204.33
2019-05-09T11:16:47.416Z,100213.73
2019-05-09T11:19:20.948Z,100216.23
2019-05-09T11:21:52.284Z,100214.86
2019-05-09T11:24:40.591Z,100209.53
2019-05-09T11:26:58.830Z,100196.08
2019-05-09T11:29:29.617Z,100200.97
2019-05-09T11:32:04.207Z,100209.19
2019-05-09T11:34:37.582Z,100210.73
2019-05-09T11:37:08.924Z,100217.72
2019-05-09T11:39:42.298Z,100213.94
2019-05-09T11:42:12.584Z,100210.87
2019-05-09T11:44:44.439Z,100199.44
2019-05-09T11:47:28.476Z,100201.09
2019-05-09T11:49:48.829Z,100201.06
2019-05-09T11:52:20.113Z,100210.26
2019-05-09T11:54:51.401Z,100214.78
2019-05-09T11:57:22.858Z,100217.72
2019-05-09T11:59:57.821Z,100215.71
2019-05-09T12:02:28.034Z,100199.33
2019-05-09T12:04:59.577Z,100202.02
2019-05-09T12:07:30.836Z,100199.63
2019-05-09T12:10:02.241Z,100208.97
2019-05-09T12:12:34.690Z,100211.00
2019-05-09T12:15:08.792Z,100214.55
2019-05-09T12:17:56.539Z,100210.01
2019-05-09T12:20:13.746Z,100213.83
2019-05-09T12:22:45.143Z,100199.37
2019-05-09T12:25:18.333Z,100179.95
2019-05-09T12:27:49.575Z,100192.48
2019-05-09T12:30:20.955Z,100193.52
2019-05-09T12:32:52.337Z,100192.22
2019-05-09T12:35:23.637Z,100192.78
2019-05-09T12:37:55.016Z,100192.86
2019-05-09T12:40:26.497Z,100209.95
2019-05-09T12:42:57.186Z,100209.95
2019-05-09T12:45:28.269Z,100214.14
2019-05-09T12:48:10.551Z,100217.34
2019-05-09T12:50:32.504Z,100220.45
2019-05-09T12:53:03.704Z,100216.89
2019-05-09T12:55:34.946Z,100218.47
2019-05-09T12:58:09.758Z,100218.39
2019-05-09T13:00:40.762Z,100207.11
2019-05-09T13:03:12.019Z,100203.69
2019-05-09T13:05:46.803Z,100212.94
2019-05-09T13:08:17.784Z,100209.56
2019-05-09T13:10:52.080Z,100213.55
2019-05-09T13:13:23.360Z,100211.28
2019-05-09T13:15:58.243Z,100219.70
2019-05-09T13:18:30.697Z,100218.81
2019-05-09T13:21:01.914Z,100217.28
2019-05-09T13:23:33.168Z,100218.97
2019-05-09T13:26:04.472Z,100218.89
2019-05-09T13:28:37.764Z,100232.39
2019-05-09T13:31:08.715Z,100242.89
2019-05-09T13:33:41.373Z,100247.34
2019-05-09T13:36:13.216Z,100250.85
2019-05-09T13:38:57.681Z,100260.06
2019-05-09T13:41:17.790Z,100248.23
2019-05-09T13:43:57.713Z,100249.41
2019-05-09T13:46:22.434Z,100266.33
2019-05-09T13:49:08.349Z,100272.15
2019-05-09T13:51:26.878Z,100272.23
2019-05-09T13:53:59.322Z,100271.50
2019-05-09T13:56:30.948Z,100291.25
2019-05-09T13:59:02.246Z,100292.62
2019-05-09T14:01:33.462Z,100293.80
2019-05-09T14:04:04.855Z,100297.92
2019-05-09T14:06:38.833Z,100300.30
2019-05-09T14:09:10.483Z,100300.30
2019-05-09T14:11:42.200Z,100302.44
2019-05-09T14:14:13.649Z,100301.67
2019-05-09T14:16:44.993Z,100302.59
2019-05-09T14:19:34.312Z,100309.38
2019-05-09T14:21:49.506Z,100298.08
2019-05-09T14:24:20.874Z,100292.91
2019-05-09T14:26:51.704Z,100296.46
2019-05-09T14:29:22.806Z,100287.97
2019-05-09T14:31:54.195Z,100284.02
2019-05-09T14:34:25.802Z,100288.63
2019-05-09T14:36:58.602Z,100288.30
2019-05-09T14:39:30.009Z,100295.33
2019-05-09T14:42:01.456Z,100295.85
2019-05-09T14:44:32.896Z,100304.33
2019-05-09T14:47:04.236Z,100302.95
2019-05-09T14:49:43.207Z,100297.55
2019-05-09T14:52:08.591Z,100300.67
2019-05-09T14:54:40.085Z,100297.92
2019-05-09T14:57:11.852Z,100301.75
2019-05-09T14:59:43.408Z,100311.20
2019-05-09T15:02:14.131Z,100310.09
2019-05-09T15:04:45.225Z,100314.45
2019-05-09T15:07:18.635Z,100305.73
2019-05-09T15:09:49.740Z,100318.33
2019-05-09T15:12:20.946Z,100322.13
2019-05-09T15:14:52.892Z,100337.11
2019-05-09T15:17:24.154Z,100341.91
2019-05-09T15:19:59.550Z,100339.25
2019-05-09T15:22:28.561Z,100339.28
2019-05-09T15:24:59.226Z,100344.24
2019-05-09T15:27:31.810Z,100348.86
2019-05-09T15:30:03.252Z,100353.17
2019-05-09T15:32:34.406Z,100362.50
2019-05-09T15:35:05.762Z,100359.05
2019-05-09T15:37:38.611Z,100365.67
2019-05-09T15:40:10.199Z,100367.83
2019-05-09T15:42:41.578Z,100369.20
2019-05-09T15:45:12.934Z,100372.88
2019-05-09T15:47:44.263Z,100376.20
2019-05-09T15:50:22.926Z,100373.94
2019-05-09T15:52:51.511Z,100381.41
2019-05-09T15:55:22.796Z,100380.61
2019-05-09T15:57:57.651Z,100382.23
2019-05-09T16:00:28.797Z,100384.73
2019-05-09T16:03:00.144Z,100392.02
2019-05-09T16:05:31.972Z,100397.37
2019-05-09T16:08:03.208Z,100406.67
2019-05-09T16:10:34.437Z,100411.55
2019-05-09T16:13:07.983Z,100398.07
2019-05-09T16:15:38.688Z,100409.85
2019-05-09T16:18:10.132Z,100407.15
2019-05-09T16:20:41.635Z,100404.17
2019-05-09T16:23:12.877Z,100399.30
2019-05-09T16:25:47.970Z,100408.81
2019-05-09T16:28:19.372Z,100413.78
2019-05-09T16:30:50.653Z,100418.03
2019-05-09T16:33:22.926Z,100423.52
2019-05-09T16:35:57.692Z,100424.03
2019-05-09T16:38:42.045Z,100432.46
2019-05-09T16:41:01.970Z,100427.63
2019-05-09T16:43:33.347Z,100435.11
2019-05-09T16:46:04.607Z,100433.41
2019-05-09T16:48:35.924Z,100438.14
2019-05-09T16:51:07.907Z,100446.47
2019-05-09T16:53:39.277Z,100445.85
2019-05-09T16:56:11.505Z,100439.22
2019-05-09T16:58:42.981Z,100447.45
2019-05-09T17:01:18.999Z,100444.19
2019-05-09T17:03:52.808Z,100451.05
2019-05-09T17:06:24.099Z,100452.42
2019-05-09T17:08:55.407Z,100455.16
2019-05-09T17:11:31.383Z,100472.70
2019-05-09T17:14:08.248Z,100473.12
2019-05-09T17:16:48.359Z,100471.66
2019-05-09T17:19:20.974Z,100480.73
2019-05-09T17:22:07.702Z,100481.16
2019-05-09T17:24:40.410Z,100479.16
2019-05-09T17:27:11.962Z,100485.79
2019-05-09T17:29:44.679Z,100483.89
2019-05-09T17:32:21.588Z,100487.81
2019-05-09T17:37:52.018Z,100503.63
2019-05-09T17:40:28.124Z,100515.24
2019-05-09T17:43:03.114Z,100516.72
2019-05-09T17:45:39.479Z,100516.29
2019-05-09T17:48:11.823Z,100519.98
2019-05-09T17:50:43.299Z,100519.23
2019-05-09T17:56:18.444Z,100528.51
2019-05-09T17:59:23.724Z,100542.09
2019-05-09T18:01:53.172Z,100535.05
2019-05-09T18:04:24.613Z,100539.57
2019-05-09T18:06:59.209Z,100536.94
2019-05-09T18:09:39.377Z,100540.97
2019-05-09T18:12:12.412Z,100549.99
2019-05-09T18:14:49.859Z,100547.11
2019-05-09T18:17:21.421Z,100539.58
2019-05-09T18:19:55.240Z,100543.14
2019-05-09T18:22:28.480Z,100537.67
2019-05-09T18:25:08.234Z,100541.77
2019-05-09T18:27:43.943Z,100534.59
2019-05-09T18:30:34.042Z,100537.34
2019-05-09T18:33:08.696Z,100535.75
2019-05-09T18:35:50.706Z,100536.20
2019-05-09T18:38:25.245Z,100551.45
2019-05-09T18:41:07.143Z,100540.91
2019-05-09T18:43:37.674Z,100538.80
2019-05-09T18:46:09.132Z,100537.76
2019-05-09T18:48:44.318Z,100546.83
2019-05-09T18:51:15.689Z,100545.57
2019-05-09T18:53:47.142Z,100553.90
2019-05-09T18:56:18.359Z,100546.09
2019-05-09T18:58:49.767Z,100545.45
2019-05-09T19:01:20.557Z,100554.61
2019-05-09T19:03:51.759Z,100541.43
2019-05-09T19:06:23.796Z,100546.39
2019-05-09T19:09:00.338Z,100541.43
2019-05-09T19:11:31.457Z,100550.17
2019-05-09T19:14:04.275Z,100550.06
2019-05-09T19:16:49.357Z,100551.31
2019-05-09T19:19:22.323Z,100555.64
2019-05-09T19:21:56.416Z,100552.17
2019-05-09T19:24:29.270Z,100547.09
2019-05-09T19:27:04.143Z,100546.77
2019-05-09T19:29:35.488Z,100548.46
2019-05-09T19:32:37.025Z,100545.39
2019-05-09T19:34:53.886Z,100544.88
2019-05-09T19:37:25.783Z,100549.05
2019-05-09T19:39:58.344Z,100547.16
2019-05-09T19:42:36.737Z,100549.72
2019-05-09T19:45:21.884Z,100553.09
2019-05-09T19:47:59.553Z,100561.61
2019-05-09T19:50:30.967Z,100565.41
2019-05-09T19:53:02.580Z,100561.61
2019-05-09T19:55:44.394Z,100556.56
2019-05-09T19:58:19.121Z,100559.48
2019-05-09T20:00:50.549Z,100566.63
2019-05-09T20:03:26.248Z,100558.52
2019-05-09T20:05:57.750Z,100551.67
2019-05-09T20:08:36.116Z,100561.14
2019-05-09T20:11:38.787Z,100565.54
2019-05-09T20:14:23.530Z,100572.27
2019-05-09T20:16:57.139Z,100580.77
2019-05-09T20:19:28.586Z,100583.84
2019-05-09T20:22:00.536Z,100579.22
2019-05-09T20:24:32.739Z,100586.36
2019-05-09T20:27:03.425Z,100584.34
2019-05-09T20:29:34.777Z,100590.83
2019-05-09T20:32:12.736Z,100591.70
2019-05-09T20:34:45.785Z,100595.69
2019-05-09T20:37:32.220Z,100593.06
2019-05-09T20:40:11.931Z,100597.63
2019-05-09T20:42:46.414Z,100599.53
2019-05-09T20:48:23.390Z,100601.65
2019-05-09T20:50:57.882Z,100597.86
2019-05-09T20:53:29.512Z,100599.63
2019-05-09T20:56:09.381Z,100601.89
2019-05-09T20:58:41.175Z,100591.81
2019-05-09T21:01:19.470Z,100589.08
2019-05-09T21:04:00.186Z,100584.97
2019-05-09T21:06:27.163Z,100589.53
2019-05-09T21:08:59.031Z,100594.05
2019-05-09T21:11:30.910Z,100592.28
2019-05-09T21:14:02.722Z,100596.61
2019-05-09T21:16:34.586Z,100598.26
2019-05-09T21:19:07.268Z,100598.68
2019-05-09T21:21:39.061Z,100597.53
2019-05-09T21:24:10.879Z,100609.52
2019-05-09T21:26:42.645Z,100621.92
2019-05-09T21:29:15.960Z,100618.62
2019-05-09T21:31:54.340Z,100623.39
2019-05-09T21:34:26.015Z,100623.05
2019-05-09T21:37:00.694Z,100624.21
2019-05-09T21:39:33.670Z,100625.28
2019-05-09T21:42:24.073Z,100627.89
2019-05-09T21:45:04.890Z,100625.55
2019-05-09T21:47:41.410Z,100633.44
2019-05-09T21:50:18.890Z,100629.55
2019-05-09T21:52:50.388Z,100626.69
2019-05-09T21:55:32.327Z,100622.37
2019-05-09T21:58:14.198Z,100623.34
2019-05-09T22:00:52.745Z,100616.59
2019-05-09T22:03:39.886Z,100612.61
2019-05-09T22:06:12.866Z,100611.91
2019-05-09T22:08:46.024Z,100612.77
2019-05-09T22:11:26.076Z,100614.38
2019-05-09T22:14:01.323Z,100617.84
2019-05-09T22:16:35.676Z,100624.80
2019-05-09T22:19:17.991Z,100624.92
2019-05-09T22:21:54.947Z,100618.42
2019-05-09T22:24:31.072Z,100617.63
2019-05-09T22:27:01.930Z,100621.03
2019-05-09T22:29:33.121Z,100626.78
2019-05-09T22:32:04.534Z,100624.34
2019-05-09T22:34:40.638Z,100638.23
2019-05-09T22:37:20.595Z,100616.75
2019-05-09T22:39:53.087Z,100628.33
2019-05-09T22:42:24.284Z,100641.98
2019-05-09T22:45:01.029Z,100642.01
2019-05-09T22:47:39.177Z,100644.74
2019-05-09T22:50:12.166Z,100644.74
2019-05-09T22:52:45.239Z,100649.97
2019-05-09T22:55:19.802Z,100645.35
2019-05-09T22:57:52.303Z,100651.89
2019-05-09T23:00:23.761Z,100652.70
2019-05-09T23:03:03.190Z,100657.05
2019-05-09T23:05:34.820Z,100649.45
2019-05-09T23:08:06.259Z,100647.36
2019-05-09T23:10:37.596Z,100645.30
2019-05-09T23:13:10.076Z,100648.67
2019-05-09T23:15:41.572Z,100650.34
2019-05-09T23:18:14.087Z,100660.13
2019-05-09T23:20:48.138Z,100651.92
2019-05-09T23:23:34.056Z,100646.66
2019-05-09T23:26:07.096Z,100646.45
2019-05-09T23:28:38.646Z,100641.31
2019-05-09T23:31:11.011Z,100645.93
2019-05-09T23:33:43.014Z,100638.91
2019-05-09T23:36:14.461Z,100637.91
2019-05-09T23:39:03.915Z,100644.23
2019-05-09T23:41:35.316Z,100637.91
2019-05-09T23:44:06.250Z,100625.53
2019-05-09T23:46:37.333Z,100627.17
2019-05-09T23:49:08.728Z,100625.20
2019-05-09T23:51:49.606Z,100625.53
2019-05-09T23:54:47.223Z,100631.86
2019-05-09T23:57:33.002Z,100634.47
